createdAt,value
2018-06-16T00:00:26.803Z,6.60
2018-06-16T00:01:00.682Z,5.97
2018-06-16T00:01:34.251Z,6.22
2018-06-16T00:02:08.547Z,5.75
2018-06-16T00:02:42.279Z,5.80
2018-06-16T00:03:16.470Z,5.33
2018-06-16T00:03:50.036Z,5.78
2018-06-16T00:04:23.582Z,5.80
2018-06-16T00:04:57.661Z,5.77
2018-06-16T00:05:31.321Z,5.95
2018-06-16T00:06:05.003Z,5.78
2018-06-16T00:06:38.616Z,5.67
2018-06-16T00:07:12.221Z,6.17
2018-06-16T00:07:46.242Z,6.40
2018-06-16T00:08:19.859Z,5.87
2018-06-16T00:08:53.604Z,6.13
2018-06-16T00:09:27.179Z,5.67
2018-06-16T00:10:00.754Z,5.75
2018-06-16T00:10:34.290Z,5.92
2018-06-16T00:11:08.566Z,5.80
2018-06-16T00:11:42.584Z,6.53
2018-06-16T00:12:16.132Z,5.65
2018-06-16T00:12:49.688Z,6.45
2018-06-16T00:13:23.310Z,6.53
2018-06-16T00:13:56.891Z,5.80
2018-06-16T00:14:30.423Z,6.33
2018-06-16T00:15:04.131Z,5.83
2018-06-16T00:15:37.733Z,5.78
2018-06-16T00:16:11.567Z,5.92
2018-06-16T00:16:45.084Z,5.97
2018-06-16T00:17:19.463Z,5.83
2018-06-16T00:17:53.919Z,5.72
2018-06-16T00:18:27.479Z,6.20
2018-06-16T00:19:01.208Z,6.33
2018-06-16T00:19:34.776Z,5.53
2018-06-16T00:20:09.157Z,5.90
2018-06-16T00:20:43.749Z,5.95
2018-06-16T00:21:18.102Z,6.15
2018-06-16T00:21:51.701Z,6.05
2018-06-16T00:22:25.284Z,6.08
2018-06-16T00:22:59.852Z,6.03
2018-06-16T00:23:33.458Z,5.78
2018-06-16T00:24:07.527Z,6.25
2018-06-16T00:24:41.591Z,5.70
2018-06-16T00:25:16.172Z,6.25
2018-06-16T00:25:49.743Z,5.75
2018-06-16T00:26:23.570Z,6.12
2018-06-16T00:26:58.074Z,6.03
2018-06-16T00:27:31.668Z,5.45
2018-06-16T00:28:04.853Z,6.33
2018-06-16T00:28:38.509Z,5.92
2018-06-16T00:29:12.523Z,6.40
2018-06-16T00:29:46.847Z,5.75
2018-06-16T00:30:20.452Z,5.92
2018-06-16T00:30:54.247Z,5.58
2018-06-16T00:31:27.851Z,6.05
2018-06-16T00:32:01.765Z,5.25
2018-06-16T00:32:35.303Z,5.25
2018-06-16T00:33:08.872Z,5.85
2018-06-16T00:33:43.271Z,5.67
2018-06-16T00:34:16.932Z,5.30
2018-06-16T00:34:50.460Z,5.10
2018-06-16T00:35:24.773Z,5.12
2018-06-16T00:35:58.333Z,6.10
2018-06-16T00:36:31.960Z,5.50
2018-06-16T00:37:05.511Z,5.90
2018-06-16T00:37:39.687Z,5.67
2018-06-16T00:38:14.071Z,4.85
2018-06-16T00:38:48.028Z,5.58
2018-06-16T00:39:22.894Z,5.97
2018-06-16T00:39:56.536Z,5.33
2018-06-16T00:40:30.128Z,5.72
2018-06-16T00:41:03.736Z,5.23
2018-06-16T00:41:37.320Z,5.03
2018-06-16T00:42:11.028Z,5.85
2018-06-16T00:42:45.521Z,4.83
2018-06-16T00:43:19.092Z,4.90
2018-06-16T00:43:53.174Z,5.87
2018-06-16T00:44:26.412Z,5.10
2018-06-16T00:45:00.058Z,5.25
2018-06-16T00:45:34.559Z,5.62
2018-06-16T00:46:07.767Z,5.00
2018-06-16T00:46:41.352Z,5.28
2018-06-16T00:47:15.741Z,5.20
2018-06-16T00:47:49.900Z,5.20
2018-06-16T00:48:23.496Z,4.75
2018-06-16T00:48:57.100Z,5.12
2018-06-16T00:49:30.667Z,4.75
2018-06-16T00:50:04.910Z,5.00
2018-06-16T00:50:38.898Z,4.72
2018-06-16T00:51:12.496Z,4.75
2018-06-16T00:51:46.666Z,4.47
2018-06-16T00:52:20.942Z,5.03
2018-06-16T00:52:54.523Z,4.30
2018-06-16T00:53:28.819Z,4.50
2018-06-16T00:54:03.452Z,4.80
2018-06-16T00:54:36.968Z,4.65
2018-06-16T00:55:10.571Z,4.50
2018-06-16T00:55:44.185Z,4.75
2018-06-16T00:56:18.440Z,4.15
2018-06-16T00:57:02.991Z,5.15
2018-06-16T00:57:42.456Z,4.55
2018-06-16T00:58:16.056Z,4.92
2018-06-16T00:58:49.704Z,4.37
2018-06-16T00:59:23.273Z,5.05
2018-06-16T00:59:56.873Z,4.83
2018-06-16T01:00:30.119Z,4.90
2018-06-16T01:01:03.683Z,4.50
2018-06-16T01:01:37.264Z,4.30
2018-06-16T01:02:10.908Z,4.67
2018-06-16T01:02:44.521Z,4.97
2018-06-16T01:03:18.044Z,5.12
2018-06-16T01:03:51.715Z,5.25
2018-06-16T01:04:25.287Z,5.03
2018-06-16T01:04:59.216Z,4.53
2018-06-16T01:05:33.499Z,4.62
2018-06-16T01:06:07.035Z,4.72
2018-06-16T01:06:40.577Z,4.90
2018-06-16T01:07:14.174Z,4.75
2018-06-16T01:07:48.535Z,4.33
2018-06-16T01:08:22.184Z,4.62
2018-06-16T01:08:56.032Z,4.50
2018-06-16T01:09:29.590Z,4.62
2018-06-16T01:10:03.226Z,4.45
2018-06-16T01:10:36.911Z,4.80
2018-06-16T01:11:11.745Z,4.92
2018-06-16T01:11:45.291Z,4.90
2018-06-16T01:12:19.384Z,5.00
2018-06-16T01:12:52.943Z,4.78
2018-06-16T01:13:26.462Z,5.00
2018-06-16T01:14:00.119Z,5.25
2018-06-16T01:14:33.687Z,5.17
2018-06-16T01:15:07.685Z,5.15
2018-06-16T01:15:41.999Z,5.58
2018-06-16T01:16:16.190Z,5.03
2018-06-16T01:16:49.790Z,4.95
2018-06-16T01:17:23.456Z,5.08
2018-06-16T01:17:58.239Z,5.40
2018-06-16T01:18:31.452Z,5.03
2018-06-16T01:19:05.970Z,5.35
2018-06-16T01:19:39.500Z,5.05
2018-06-16T01:20:13.134Z,5.37
2018-06-16T01:20:46.681Z,5.28
2018-06-16T01:21:20.219Z,4.65
2018-06-16T01:21:53.825Z,4.67
2018-06-16T01:22:27.387Z,4.67
2018-06-16T01:23:00.946Z,4.35
2018-06-16T01:23:34.866Z,4.70
2018-06-16T01:24:08.398Z,4.50
2018-06-16T01:24:42.248Z,4.78
2018-06-16T01:25:16.136Z,5.15
2018-06-16T01:25:49.684Z,4.70
2018-06-16T01:26:23.873Z,4.67
2018-06-16T01:26:57.533Z,4.60
2018-06-16T01:27:31.797Z,4.90
2018-06-16T01:28:05.379Z,4.87
2018-06-16T01:28:38.952Z,4.85
2018-06-16T01:29:13.730Z,4.58
2018-06-16T01:29:47.296Z,4.72
2018-06-16T01:30:20.863Z,4.70
2018-06-16T01:30:55.127Z,4.73
2018-06-16T01:31:29.929Z,4.62
2018-06-16T01:32:03.511Z,4.87
2018-06-16T01:32:38.135Z,4.60
2018-06-16T01:33:11.695Z,4.80
2018-06-16T01:33:45.229Z,4.62
2018-06-16T01:34:18.818Z,4.67
2018-06-16T01:34:52.983Z,4.90
2018-06-16T01:35:26.543Z,5.15
2018-06-16T01:36:00.753Z,5.45
2018-06-16T01:36:34.328Z,5.05
2018-06-16T01:37:07.902Z,5.03
2018-06-16T01:37:41.512Z,5.00
2018-06-16T01:38:15.168Z,5.47
2018-06-16T01:38:48.722Z,5.40
2018-06-16T01:39:22.303Z,5.25
2018-06-16T01:39:55.894Z,5.15
2018-06-16T01:40:30.060Z,4.70
2018-06-16T01:41:04.207Z,4.87
2018-06-16T01:41:38.215Z,4.53
2018-06-16T01:42:12.040Z,5.00
2018-06-16T01:42:45.584Z,4.53
2018-06-16T01:43:19.144Z,4.67
2018-06-16T01:43:52.727Z,5.10
2018-06-16T01:44:26.273Z,4.78
2018-06-16T01:44:59.909Z,4.70
2018-06-16T01:45:34.100Z,4.80
2018-06-16T01:46:07.667Z,5.30
2018-06-16T01:46:41.272Z,5.60
2018-06-16T01:47:14.858Z,5.50
2018-06-16T01:47:48.423Z,6.62
2018-06-16T01:48:22.073Z,5.08
2018-06-16T01:48:56.117Z,4.67
2018-06-16T01:49:29.726Z,5.22
2018-06-16T01:50:03.319Z,5.47
2018-06-16T01:50:36.931Z,4.95
2018-06-16T01:51:10.724Z,4.72
2018-06-16T01:51:44.685Z,4.83
2018-06-16T01:52:18.241Z,5.28
2018-06-16T01:52:51.824Z,4.90
2018-06-16T01:53:25.578Z,5.22
2018-06-16T01:53:59.394Z,5.33
2018-06-16T01:54:33.653Z,5.20
2018-06-16T01:55:07.170Z,5.08
2018-06-16T01:55:40.705Z,5.47
2018-06-16T01:56:14.603Z,4.72
2018-06-16T01:56:48.340Z,4.52
2018-06-16T01:57:21.862Z,4.78
2018-06-16T01:57:55.438Z,4.20
2018-06-16T01:58:29.632Z,5.00
2018-06-16T01:59:04.072Z,4.90
2018-06-16T01:59:39.092Z,5.22
2018-06-16T02:00:12.648Z,5.12
2018-06-16T02:00:47.481Z,5.17
2018-06-16T02:01:21.111Z,5.05
2018-06-16T02:01:54.668Z,5.62
2018-06-16T02:02:28.193Z,5.75
2018-06-16T02:03:01.860Z,5.60
2018-06-16T02:03:35.433Z,5.80
2018-06-16T02:04:09.893Z,5.97
2018-06-16T02:04:43.447Z,5.35
2018-06-16T02:05:17.734Z,5.50
2018-06-16T02:05:51.279Z,5.50
2018-06-16T02:06:24.821Z,5.20
2018-06-16T02:06:58.369Z,5.73
2018-06-16T02:07:32.432Z,5.35
2018-06-16T02:08:06.701Z,5.65
2018-06-16T02:08:41.045Z,5.10
2018-06-16T02:09:15.301Z,5.62
2018-06-16T02:09:49.381Z,5.55
2018-06-16T02:10:23.051Z,5.67
2018-06-16T02:10:56.638Z,5.30
2018-06-16T02:11:30.271Z,5.20
2018-06-16T02:12:03.934Z,5.03
2018-06-16T02:12:37.699Z,5.30
2018-06-16T02:13:11.884Z,5.47
2018-06-16T02:13:45.446Z,5.72
2018-06-16T02:14:18.992Z,4.90
2018-06-16T02:14:52.506Z,5.53
2018-06-16T02:15:25.705Z,5.25
2018-06-16T02:16:00.180Z,5.47
2018-06-16T02:16:33.716Z,5.08
2018-06-16T02:17:07.245Z,5.40
2018-06-16T02:17:40.876Z,5.22
2018-06-16T02:18:14.463Z,5.10
2018-06-16T02:18:48.003Z,5.33
2018-06-16T02:19:21.515Z,5.35
2018-06-16T02:19:55.096Z,5.03
2018-06-16T02:20:28.312Z,4.80
2018-06-16T02:21:01.947Z,5.33
2018-06-16T02:21:35.586Z,5.30
2018-06-16T02:22:09.222Z,5.37
2018-06-16T02:22:43.480Z,5.72
2018-06-16T02:23:17.050Z,5.30
2018-06-16T02:23:50.632Z,5.33
2018-06-16T02:24:24.186Z,5.55
2018-06-16T02:24:58.236Z,5.30
2018-06-16T02:25:31.956Z,5.75
2018-06-16T02:26:05.563Z,5.45
2018-06-16T02:26:40.051Z,5.55
2018-06-16T02:27:13.711Z,6.20
2018-06-16T02:27:48.543Z,5.22
2018-06-16T02:28:22.848Z,5.05
2018-06-16T02:28:56.595Z,5.08
2018-06-16T02:29:30.139Z,5.92
2018-06-16T02:30:04.724Z,5.17
2018-06-16T02:30:38.595Z,5.22
2018-06-16T02:31:13.112Z,5.72
2018-06-16T02:31:46.726Z,5.10
2018-06-16T02:32:20.856Z,5.78
2018-06-16T02:32:55.022Z,5.90
2018-06-16T02:33:28.614Z,4.92
2018-06-16T02:34:02.140Z,5.53
2018-06-16T02:34:35.698Z,6.17
2018-06-16T02:35:09.361Z,5.67
2018-06-16T02:35:43.054Z,5.45
2018-06-16T02:36:16.781Z,5.03
2018-06-16T02:36:50.355Z,5.55
2018-06-16T02:37:23.943Z,5.67
2018-06-16T02:37:58.244Z,5.20
2018-06-16T02:38:32.439Z,5.17
2018-06-16T02:39:09.032Z,5.40
2018-06-16T02:39:43.204Z,5.60
2018-06-16T02:40:17.333Z,5.28
2018-06-16T02:40:50.933Z,5.60
2018-06-16T02:41:50.570Z,6.00
2018-06-16T02:42:24.213Z,5.80
2018-06-16T02:42:57.964Z,6.23
2018-06-16T02:43:32.356Z,5.12
2018-06-16T02:44:06.884Z,5.47
2018-06-16T02:44:41.001Z,5.53
2018-06-16T02:45:15.868Z,5.62
2018-06-16T02:45:49.525Z,5.85
2018-06-16T02:46:23.128Z,5.78
2018-06-16T02:46:58.126Z,5.50
2018-06-16T02:47:31.683Z,5.20
2018-06-16T02:48:05.514Z,5.90
2018-06-16T02:48:39.076Z,5.67
2018-06-16T02:49:12.676Z,5.25
2018-06-16T02:49:46.964Z,5.17
2018-06-16T02:50:20.682Z,5.30
2018-06-16T02:50:54.123Z,5.20
2018-06-16T02:51:27.708Z,5.20
2018-06-16T02:52:01.309Z,5.80
2018-06-16T02:52:35.383Z,5.60
2018-06-16T02:53:09.036Z,5.50
2018-06-16T02:53:42.628Z,6.17
2018-06-16T02:54:16.217Z,5.10
2018-06-16T02:54:49.913Z,5.60
2018-06-16T02:55:23.911Z,5.47
2018-06-16T02:55:57.513Z,4.92
2018-06-16T02:56:31.594Z,5.03
2018-06-16T02:57:06.017Z,5.73
2018-06-16T02:57:40.304Z,5.28
2018-06-16T02:58:13.948Z,5.40
2018-06-16T02:58:48.196Z,4.88
2018-06-16T02:59:22.645Z,5.45
2018-06-16T02:59:56.299Z,5.65
2018-06-16T03:00:30.265Z,5.47
2018-06-16T03:01:03.820Z,5.43
2018-06-16T03:01:37.409Z,5.50
2018-06-16T03:02:11.033Z,5.08
2018-06-16T03:02:45.259Z,5.97
2018-06-16T03:03:19.640Z,5.80
2018-06-16T03:03:53.733Z,6.12
2018-06-16T03:04:27.372Z,5.35
2018-06-16T03:05:03.376Z,5.90
2018-06-16T03:05:37.847Z,5.35
2018-06-16T03:06:12.169Z,5.62
2018-06-16T03:06:46.108Z,5.35
2018-06-16T03:07:20.332Z,5.85
2018-06-16T03:07:53.976Z,5.72
2018-06-16T03:08:28.177Z,5.53
2018-06-16T03:09:01.758Z,5.73
2018-06-16T03:09:35.341Z,5.58
2018-06-16T03:10:08.936Z,5.40
2018-06-16T03:10:42.552Z,5.05
2018-06-16T03:11:16.489Z,5.10
2018-06-16T03:11:50.466Z,5.45
2018-06-16T03:12:24.029Z,5.55
2018-06-16T03:12:58.918Z,5.25
2018-06-16T03:13:32.437Z,5.40
2018-06-16T03:14:05.989Z,5.00
2018-06-16T03:14:39.532Z,5.33
2018-06-16T03:15:13.193Z,5.10
2018-06-16T03:15:46.825Z,5.08
2018-06-16T03:16:20.339Z,5.40
2018-06-16T03:16:53.880Z,5.27
2018-06-16T03:17:27.464Z,5.53
2018-06-16T03:18:02.677Z,5.17
2018-06-16T03:18:36.279Z,5.70
2018-06-16T03:19:10.393Z,5.33
2018-06-16T03:19:45.139Z,5.85
2018-06-16T03:20:18.700Z,5.25
2018-06-16T03:20:53.023Z,5.70
2018-06-16T03:21:26.624Z,5.30
2018-06-16T03:22:00.197Z,5.50
2018-06-16T03:22:33.777Z,5.53
2018-06-16T03:23:08.072Z,5.22
2018-06-16T03:23:42.482Z,4.97
2018-06-16T03:24:16.043Z,4.33
2018-06-16T03:24:49.591Z,4.92
2018-06-16T03:25:23.169Z,5.35
2018-06-16T03:25:56.817Z,4.85
2018-06-16T03:26:31.069Z,4.87
2018-06-16T03:27:04.689Z,5.10
2018-06-16T03:27:38.251Z,4.87
2018-06-16T03:28:12.192Z,5.50
2018-06-16T03:28:45.769Z,5.03
2018-06-16T03:29:20.060Z,5.10
2018-06-16T03:29:53.653Z,4.40
2018-06-16T03:30:26.931Z,5.00
2018-06-16T03:31:01.869Z,5.30
2018-06-16T03:31:36.071Z,4.80
2018-06-16T03:32:09.667Z,5.60
2018-06-16T03:32:43.260Z,5.33
2018-06-16T03:33:16.825Z,4.80
2018-06-16T03:33:50.424Z,5.22
2018-06-16T03:34:24.688Z,5.30
2018-06-16T03:34:58.241Z,5.12
2018-06-16T03:35:32.499Z,4.95
2018-06-16T03:36:06.751Z,5.37
2018-06-16T03:36:42.091Z,5.45
2018-06-16T03:37:17.196Z,5.42
2018-06-16T03:37:51.738Z,5.15
2018-06-16T03:38:25.937Z,5.35
2018-06-16T03:38:59.556Z,5.80
2018-06-16T03:39:32.849Z,5.55
2018-06-16T03:40:06.508Z,5.62
2018-06-16T03:40:40.271Z,5.62
2018-06-16T03:41:15.467Z,5.35
2018-06-16T03:41:49.081Z,5.12
2018-06-16T03:42:22.703Z,5.03
2018-06-16T03:42:57.258Z,5.30
2018-06-16T03:43:30.910Z,5.55
2018-06-16T03:44:04.535Z,5.33
2018-06-16T03:44:38.660Z,5.37
2018-06-16T03:45:12.839Z,5.03
2018-06-16T03:45:47.140Z,5.53
2018-06-16T03:46:21.407Z,5.78
2018-06-16T03:46:54.891Z,5.20
2018-06-16T03:47:28.450Z,5.37
2018-06-16T03:48:03.260Z,5.70
2018-06-16T03:48:36.876Z,5.22
2018-06-16T03:49:10.527Z,4.83
2018-06-16T03:49:44.590Z,5.08
2018-06-16T03:50:18.133Z,5.25
2018-06-16T03:50:51.667Z,5.12
2018-06-16T03:51:25.312Z,4.95
2018-06-16T03:52:00.826Z,5.20
2018-06-16T03:52:34.960Z,5.30
2018-06-16T03:53:08.537Z,4.97
2018-06-16T03:53:43.171Z,5.78
2018-06-16T03:54:16.712Z,5.37
2018-06-16T03:54:50.285Z,5.17
2018-06-16T03:55:23.879Z,5.50
2018-06-16T03:55:57.399Z,5.08
2018-06-16T03:56:31.052Z,5.08
2018-06-16T03:57:05.964Z,5.65
2018-06-16T03:57:39.480Z,4.90
2018-06-16T03:58:13.032Z,5.80
2018-06-16T03:58:47.534Z,5.33
2018-06-16T03:59:21.129Z,5.95
2018-06-16T03:59:55.463Z,5.37
2018-06-16T04:00:29.088Z,4.90
2018-06-16T04:01:02.636Z,5.40
2018-06-16T04:01:36.729Z,5.17
2018-06-16T04:02:10.303Z,5.30
2018-06-16T04:02:44.719Z,5.50
2018-06-16T04:03:18.318Z,5.17
2018-06-16T04:03:51.884Z,5.00
2018-06-16T04:04:26.373Z,5.22
2018-06-16T04:05:00.559Z,5.60
2018-06-16T04:05:35.033Z,5.03
2018-06-16T04:06:08.570Z,5.20
2018-06-16T04:06:42.771Z,4.92
2018-06-16T04:07:17.093Z,5.30
2018-06-16T04:07:50.689Z,5.25
2018-06-16T04:08:24.383Z,5.58
2018-06-16T04:08:58.021Z,4.78
2018-06-16T04:09:31.577Z,5.05
2018-06-16T04:10:05.217Z,5.60
2018-06-16T04:10:39.161Z,5.33
2018-06-16T04:11:14.095Z,5.10
2018-06-16T04:11:47.690Z,4.85
2018-06-16T04:12:22.019Z,5.28
2018-06-16T04:12:55.613Z,5.15
2018-06-16T04:13:29.160Z,5.03
2018-06-16T04:14:02.706Z,4.60
2018-06-16T04:14:36.297Z,4.40
2018-06-16T04:15:10.827Z,5.78
2018-06-16T04:15:46.037Z,5.20
2018-06-16T04:16:20.321Z,5.47
2018-06-16T04:16:54.579Z,5.27
2018-06-16T04:17:28.186Z,5.42
2018-06-16T04:18:01.759Z,5.03
2018-06-16T04:18:35.364Z,4.95
2018-06-16T04:19:08.931Z,5.83
2018-06-16T04:19:43.833Z,5.05
2018-06-16T04:20:18.167Z,5.15
2018-06-16T04:20:51.776Z,5.33
2018-06-16T04:21:25.373Z,5.47
2018-06-16T04:21:59.628Z,5.12
2018-06-16T04:22:33.220Z,4.90
2018-06-16T04:23:06.860Z,5.23
2018-06-16T04:23:40.419Z,5.47
2018-06-16T04:24:14.032Z,4.85
2018-06-16T04:24:48.584Z,5.10
2018-06-16T04:25:22.292Z,5.17
2018-06-16T04:25:56.568Z,5.72
2018-06-16T04:26:30.253Z,5.25
2018-06-16T04:27:03.790Z,5.23
2018-06-16T04:27:38.258Z,5.55
2018-06-16T04:28:11.864Z,5.30
2018-06-16T04:28:45.477Z,5.12
2018-06-16T04:29:19.023Z,5.50
2018-06-16T04:29:53.305Z,5.53
2018-06-16T04:30:26.897Z,6.05
2018-06-16T04:31:00.516Z,5.50
2018-06-16T04:31:34.292Z,5.85
2018-06-16T04:32:07.915Z,5.47
2018-06-16T04:32:41.476Z,6.20
2018-06-16T04:33:15.702Z,6.08
2018-06-16T04:33:49.946Z,5.40
2018-06-16T04:34:23.546Z,5.60
2018-06-16T04:34:57.476Z,5.90
2018-06-16T04:35:31.047Z,5.33
2018-06-16T04:36:04.670Z,5.33
2018-06-16T04:36:38.267Z,5.30
2018-06-16T04:37:11.871Z,5.37
2018-06-16T04:37:46.283Z,5.78
2018-06-16T04:38:20.353Z,5.25
2018-06-16T04:38:54.008Z,5.67
2018-06-16T04:39:27.590Z,6.00
2018-06-16T04:40:01.773Z,4.92
2018-06-16T04:40:35.391Z,4.83
2018-06-16T04:41:08.988Z,5.08
2018-06-16T04:41:42.688Z,4.80
2018-06-16T04:42:16.301Z,5.25
2018-06-16T04:42:50.107Z,5.42
2018-06-16T04:43:23.761Z,5.92
2018-06-16T04:43:58.245Z,5.87
2018-06-16T04:44:32.004Z,4.90
2018-06-16T04:45:06.008Z,5.85
2018-06-16T04:45:40.588Z,5.78
2018-06-16T04:46:14.089Z,5.67
2018-06-16T04:46:49.156Z,5.68
2018-06-16T04:47:22.735Z,5.50
2018-06-16T04:47:56.352Z,5.65
2018-06-16T04:48:29.913Z,6.55
2018-06-16T04:49:05.299Z,5.50
2018-06-16T04:49:39.760Z,5.83
2018-06-16T04:50:13.360Z,6.45
2018-06-16T04:50:46.949Z,6.28
2018-06-16T04:51:20.448Z,5.60
2018-06-16T04:51:54.047Z,5.50
2018-06-16T04:52:27.980Z,5.55
2018-06-16T04:53:02.053Z,5.20
2018-06-16T04:53:35.615Z,5.47
2018-06-16T04:54:09.233Z,5.72
2018-06-16T04:54:43.240Z,6.22
2018-06-16T04:55:16.548Z,5.90
2018-06-16T04:55:50.276Z,5.78
2018-06-16T04:56:24.501Z,6.03
2018-06-16T04:56:58.793Z,6.50
2018-06-16T04:57:32.553Z,6.92
2018-06-16T04:58:06.201Z,6.35
2018-06-16T04:58:39.962Z,6.17
2018-06-16T04:59:13.616Z,6.40
2018-06-16T04:59:47.377Z,6.30
2018-06-16T05:00:20.627Z,6.00
2018-06-16T05:00:54.235Z,6.73
2018-06-16T05:01:28.404Z,6.97
2018-06-16T05:02:02.244Z,6.58
2018-06-16T05:02:36.461Z,6.83
2018-06-16T05:03:10.790Z,6.50
2018-06-16T05:03:44.812Z,6.60
2018-06-16T05:04:18.389Z,7.28
2018-06-16T05:04:52.938Z,7.03
2018-06-16T05:05:26.557Z,6.45
2018-06-16T05:06:01.070Z,7.40
2018-06-16T05:06:34.667Z,7.20
2018-06-16T05:07:08.919Z,7.28
2018-06-16T05:07:42.561Z,7.75
2018-06-16T05:08:17.017Z,7.33
2018-06-16T05:08:50.239Z,6.70
2018-06-16T05:09:24.714Z,6.95
2018-06-16T05:09:58.955Z,7.33
2018-06-16T05:10:33.125Z,7.25
2018-06-16T05:11:07.099Z,7.77
2018-06-16T05:11:40.988Z,6.75
2018-06-16T05:12:14.572Z,6.87
2018-06-16T05:12:49.007Z,6.36
2018-06-16T05:13:23.203Z,6.65
2018-06-16T05:13:56.781Z,6.35
2018-06-16T05:14:30.450Z,6.58
2018-06-16T05:15:04.113Z,6.40
2018-06-16T05:15:37.703Z,6.12
2018-06-16T05:16:11.272Z,6.10
2018-06-16T05:16:44.854Z,6.42
2018-06-16T05:17:18.946Z,6.70
2018-06-16T05:17:52.749Z,6.08
2018-06-16T05:18:26.335Z,6.15
2018-06-16T05:19:00.290Z,6.27
2018-06-16T05:19:33.520Z,6.33
2018-06-16T05:20:07.746Z,6.03
2018-06-16T05:20:41.423Z,6.37
2018-06-16T05:21:15.064Z,6.35
2018-06-16T05:21:49.311Z,7.08
2018-06-16T05:22:23.901Z,6.33
2018-06-16T05:22:57.466Z,6.70
2018-06-16T05:23:30.679Z,6.50
2018-06-16T05:24:04.221Z,6.50
2018-06-16T05:24:38.398Z,6.70
2018-06-16T05:25:12.017Z,6.33
2018-06-16T05:25:47.011Z,7.05
2018-06-16T05:26:20.520Z,6.47
2018-06-16T05:26:54.039Z,6.17
2018-06-16T05:27:27.687Z,6.28
2018-06-16T05:28:01.246Z,5.67
2018-06-16T05:28:34.772Z,7.28
2018-06-16T05:29:07.990Z,7.12
2018-06-16T05:29:42.187Z,7.10
2018-06-16T05:30:15.903Z,6.67
2018-06-16T05:30:50.250Z,6.90
2018-06-16T05:31:24.166Z,6.95
2018-06-16T05:31:57.797Z,6.72
2018-06-16T05:32:31.410Z,7.17
2018-06-16T05:33:04.988Z,7.10
2018-06-16T05:33:39.186Z,6.65
2018-06-16T05:34:12.769Z,6.03
2018-06-16T05:34:46.364Z,6.08
2018-06-16T05:35:20.521Z,6.60
2018-06-16T05:35:54.359Z,6.80
2018-06-16T05:36:28.651Z,6.45
2018-06-16T05:37:03.067Z,6.63
2018-06-16T05:37:37.580Z,6.60
2018-06-16T05:38:11.128Z,6.25
2018-06-16T05:38:45.082Z,6.70
2018-06-16T05:39:18.764Z,6.95
2018-06-16T05:39:52.391Z,7.33
2018-06-16T05:40:26.001Z,7.05
2018-06-16T05:40:59.802Z,7.12
2018-06-16T05:41:33.346Z,7.22
2018-06-16T05:42:07.000Z,6.75
2018-06-16T05:42:41.595Z,7.50
2018-06-16T05:43:15.136Z,6.83
2018-06-16T05:43:48.719Z,6.92
2018-06-16T05:44:22.345Z,7.85
2018-06-16T05:44:56.739Z,6.37
2018-06-16T05:45:30.404Z,6.78
2018-06-16T05:46:04.084Z,6.55
2018-06-16T05:46:37.700Z,6.85
2018-06-16T05:47:11.313Z,7.20
2018-06-16T05:47:44.908Z,7.67
2018-06-16T05:48:18.507Z,7.60
2018-06-16T05:48:52.076Z,7.62
2018-06-16T05:49:25.709Z,7.20
2018-06-16T05:49:59.559Z,7.45
2018-06-16T05:50:33.127Z,7.10
2018-06-16T05:51:06.794Z,7.73
2018-06-16T05:51:40.434Z,8.13
2018-06-16T05:52:14.611Z,7.83
2018-06-16T05:52:49.108Z,7.72
2018-06-16T05:53:22.683Z,7.08
2018-06-16T05:53:56.246Z,7.80
2018-06-16T05:54:29.883Z,7.78
2018-06-16T05:55:03.507Z,7.50
2018-06-16T05:55:37.091Z,7.55
2018-06-16T05:56:11.319Z,7.50
2018-06-16T05:56:44.878Z,7.55
2018-06-16T05:57:18.444Z,7.00
2018-06-16T05:57:52.023Z,8.05
2018-06-16T05:58:25.548Z,7.97
2018-06-16T05:58:59.104Z,8.17
2018-06-16T05:59:32.726Z,8.28
2018-06-16T06:00:06.733Z,8.15
2018-06-16T06:00:40.928Z,9.63
2018-06-16T06:01:14.467Z,9.80
2018-06-16T06:01:48.051Z,9.60
2018-06-16T06:02:22.451Z,10.20
2018-06-16T06:02:56.527Z,10.27
2018-06-16T06:03:30.811Z,10.68
2018-06-16T06:04:05.706Z,9.80
2018-06-16T06:04:39.659Z,10.15
2018-06-16T06:05:13.302Z,9.95
2018-06-16T06:05:46.986Z,9.75
2018-06-16T06:06:21.126Z,10.63
2018-06-16T06:06:54.387Z,9.80
2018-06-16T06:07:28.515Z,10.05
2018-06-16T06:08:03.007Z,9.88
2018-06-16T06:08:36.640Z,10.58
2018-06-16T06:09:11.058Z,11.40
2018-06-16T06:09:44.620Z,10.35
2018-06-16T06:10:18.288Z,10.20
2018-06-16T06:10:51.834Z,10.65
2018-06-16T06:11:25.964Z,9.90
2018-06-16T06:11:59.533Z,10.35
2018-06-16T06:12:33.712Z,10.98
2018-06-16T06:13:08.012Z,11.23
2018-06-16T06:13:41.603Z,11.57
2018-06-16T06:14:15.162Z,10.90
2018-06-16T06:14:49.257Z,12.15
2018-06-16T06:15:22.851Z,11.93
2018-06-16T06:15:56.372Z,11.65
2018-06-16T06:16:30.727Z,11.40
2018-06-16T06:17:04.728Z,10.97
2018-06-16T06:17:38.276Z,10.32
2018-06-16T06:18:11.877Z,11.12
2018-06-16T06:18:46.368Z,12.15
2018-06-16T06:19:19.998Z,12.50
2018-06-16T06:19:53.580Z,11.28
2018-06-16T06:20:27.124Z,11.90
2018-06-16T06:21:00.662Z,11.90
2018-06-16T06:21:34.857Z,12.90
2018-06-16T06:22:08.444Z,11.70
2018-06-16T06:22:41.984Z,11.25
2018-06-16T06:23:15.558Z,12.90
2018-06-16T06:23:49.812Z,11.93
2018-06-16T06:24:24.047Z,12.95
2018-06-16T06:24:58.629Z,12.70
2018-06-16T06:25:32.267Z,11.88
2018-06-16T06:26:07.740Z,12.85
2018-06-16T06:26:41.449Z,12.58
2018-06-16T06:27:15.041Z,11.68
2018-06-16T06:27:48.608Z,12.37
2018-06-16T06:28:22.661Z,12.23
2018-06-16T06:28:57.499Z,11.23
2018-06-16T06:29:31.112Z,11.30
2018-06-16T06:30:04.809Z,11.73
2018-06-16T06:30:38.397Z,11.70
2018-06-16T06:31:12.318Z,10.80
2018-06-16T06:31:46.013Z,12.05
2018-06-16T06:32:19.596Z,12.58
2018-06-16T06:32:54.279Z,12.20
2018-06-16T06:33:27.823Z,12.33
2018-06-16T06:34:02.407Z,12.45
2018-06-16T06:34:36.593Z,13.10
2018-06-16T06:35:11.004Z,12.40
2018-06-16T06:35:44.551Z,13.20
2018-06-16T06:36:18.103Z,12.88
2018-06-16T06:36:52.448Z,12.55
2018-06-16T06:37:26.048Z,12.75
2018-06-16T06:37:59.595Z,12.73
2018-06-16T06:38:33.146Z,12.30
2018-06-16T06:39:08.213Z,12.63
2018-06-16T06:39:41.787Z,11.55
2018-06-16T06:40:15.883Z,11.70
2018-06-16T06:40:49.676Z,12.50
2018-06-16T06:41:23.276Z,12.50
2018-06-16T06:41:58.161Z,12.75
2018-06-16T06:42:31.693Z,13.68
2018-06-16T06:43:05.994Z,13.60
2018-06-16T06:43:40.466Z,13.25
2018-06-16T06:44:14.057Z,13.65
2018-06-16T06:44:48.481Z,13.35
2018-06-16T06:45:24.299Z,13.43
2018-06-16T06:45:57.917Z,13.13
2018-06-16T06:46:31.528Z,13.72
2018-06-16T06:47:05.307Z,13.50
2018-06-16T06:47:38.941Z,13.38
2018-06-16T06:48:13.269Z,13.45
2018-06-16T06:48:48.477Z,13.15
2018-06-16T06:49:22.638Z,13.98
2018-06-16T06:49:56.192Z,13.70
2018-06-16T06:50:29.802Z,13.30
2018-06-16T06:51:03.545Z,13.67
2018-06-16T06:51:37.148Z,11.95
2018-06-16T06:52:10.855Z,12.05
2018-06-16T06:52:46.391Z,11.90
2018-06-16T06:53:21.068Z,14.10
2018-06-16T06:53:54.662Z,12.90
2018-06-16T06:54:28.269Z,12.47
2018-06-16T06:55:02.659Z,12.63
2018-06-16T06:55:36.748Z,13.22
2018-06-16T06:56:10.855Z,12.88
2018-06-16T06:56:44.433Z,13.48
2018-06-16T06:57:19.314Z,11.95
2018-06-16T06:57:52.947Z,13.00
2018-06-16T06:58:27.583Z,12.58
2018-06-16T06:59:01.233Z,12.80
2018-06-16T06:59:35.467Z,11.80
2018-06-16T07:00:12.023Z,13.08
2018-06-16T07:00:46.495Z,12.50
2018-06-16T07:01:20.836Z,12.65
2018-06-16T07:01:54.843Z,13.40
2018-06-16T07:02:28.923Z,13.18
2018-06-16T07:03:02.512Z,13.30
2018-06-16T07:03:36.118Z,12.43
2018-06-16T07:04:11.545Z,13.38
2018-06-16T07:04:45.336Z,12.98
2018-06-16T07:05:19.598Z,13.45
2018-06-16T07:05:53.530Z,12.75
2018-06-16T07:06:27.113Z,13.15
2018-06-16T07:07:03.324Z,12.30
2018-06-16T07:07:38.471Z,12.45
2018-06-16T07:08:12.086Z,11.28
2018-06-16T07:08:47.159Z,11.90
2018-06-16T07:09:20.859Z,12.18
2018-06-16T07:09:54.750Z,12.78
2018-06-16T07:10:28.344Z,11.75
2018-06-16T07:11:02.004Z,12.50
2018-06-16T07:11:35.608Z,11.93
2018-06-16T07:12:09.160Z,11.95
2018-06-16T07:12:42.664Z,13.10
2018-06-16T07:13:16.367Z,12.10
2018-06-16T07:13:49.962Z,11.75
2018-06-16T07:14:23.563Z,12.03
2018-06-16T07:14:57.175Z,12.20
2018-06-16T07:15:30.764Z,11.43
2018-06-16T07:16:05.252Z,12.30
2018-06-16T07:16:38.875Z,12.45
2018-06-16T07:17:12.693Z,11.90
2018-06-16T07:17:46.304Z,13.45
2018-06-16T07:18:20.378Z,12.85
2018-06-16T07:18:53.943Z,12.70
2018-06-16T07:19:27.542Z,12.50
2018-06-16T07:20:01.080Z,12.35
2018-06-16T07:20:35.438Z,12.18
2018-06-16T07:21:10.916Z,13.22
2018-06-16T07:21:45.221Z,12.93
2018-06-16T07:22:25.051Z,12.43
2018-06-16T07:22:58.631Z,11.40
2018-06-16T07:23:32.167Z,11.97
2018-06-16T07:24:05.944Z,12.75
2018-06-16T07:24:39.975Z,12.60
2018-06-16T07:25:13.620Z,12.80
2018-06-16T07:25:47.219Z,12.95
2018-06-16T07:26:21.036Z,12.15
2018-06-16T07:26:54.632Z,12.93
2018-06-16T07:27:29.154Z,12.58
2018-06-16T07:28:03.361Z,12.45
2018-06-16T07:28:38.198Z,12.82
2018-06-16T07:29:12.501Z,12.90